PWSweather.com
Personal Weather Stations
Station Observations

YeovilGB

Lat: 50.949, Lon: -2.627

Elevation: 70

Station Type: Vantage Pro

http://www.yeovil-weather.me.uk/

High Low Average
Temperature 46.7°F8.2°C 37.0°F2.8°C 41.9°F5.5°C
Dew Point 45.6°F7.6°C 35.5°F1.9°C 40.2°F4.6°C
Winds 10.4 mph 16.7 kmh Calm Calm 2.0 mph SSW3.2 kmh SSW
Wind Gusts 20.7 mph33.3 kmh -- 5.0 mph8.0 kmh
Humidity 97% 82% 94%
Pressure 29.53 in1000.0 mb 28.90 in978.7 mb -
Precipitation 0.28 in7.1 mm - -
Hour Temp Dew Point Humidity Winds Wind Gusts Pressure Precip Precip Rate Daily Precip Total
12:00 AM 40.4°F4.7°C 39.1°F3.9°C 95% 2.3 mph SW3.7 kmh SW 8.1 mph13.0 kmh 29.50 in999.0 mb - 0.00 in0.0 mm 0.00 in0.0 mm
12:10 AM 40.3°F4.6°C 38.9°F3.8°C 95% 1.2 mph SSW1.9 kmh SSW 4.6 mph7.4 kmh 29.50 in999.0 mb - 0.00 in0.0 mm 0.00 in0.0 mm
12:20 AM 40.1°F4.5°C 38.8°F3.8°C 95% 3.5 mph SSW5.6 kmh SSW 8.1 mph13.0 kmh 29.51 in999.3 mb - 0.00 in0.0 mm 0.00 in0.0 mm
12:30 AM 39.9°F4.4°C 38.6°F3.7°C 95% 1.2 mph SSW1.9 kmh SSW 1.2 mph1.9 kmh 29.51 in999.3 mb - 0.00 in0.0 mm 0.00 in0.0 mm
12:40 AM 39.7°F4.3°C 38.4°F3.6°C 95% 2.3 mph SW3.7 kmh SW 8.1 mph13.0 kmh 29.50 in999.0 mb - 0.00 in0.0 mm 0.00 in0.0 mm
12:50 AM 39.5°F4.2°C 38.2°F3.4°C 95% 1.2 mph SW1.9 kmh SW -- 29.51 in999.3 mb - 0.00 in0.0 mm 0.00 in0.0 mm
01:00 AM 39.3°F4.1°C 38.0°F3.3°C 95% 1.2 mph SW1.9 kmh SW -- 29.51 in999.3 mb - 0.00 in0.0 mm 0.00 in0.0 mm
01:10 AM 39.3°F4.1°C 38.3°F3.5°C 96% 2.3 mph SW3.7 kmh SW 8.1 mph13.0 kmh 29.52 in999.7 mb - 0.00 in0.0 mm 0.00 in0.0 mm
01:20 AM 39.3°F4.1°C 38.3°F3.5°C 96% 1.2 mph SW1.9 kmh SW 6.9 mph11.1 kmh 29.52 in999.7 mb - 0.00 in0.0 mm 0.00 in0.0 mm
01:30 AM 39.4°F4.1°C 38.4°F3.6°C 96% 2.3 mph SW3.7 kmh SW 6.9 mph11.1 kmh 29.52 in999.7 mb - 0.00 in0.0 mm 0.00 in0.0 mm
01:40 AM 39.4°F4.1°C 38.1°F3.4°C 95% 3.5 mph SW5.6 kmh SW 8.1 mph13.0 kmh 29.52 in999.7 mb - 0.00 in0.0 mm 0.00 in0.0 mm
01:50 AM 39.4°F4.1°C 38.1°F3.4°C 95% Calm Calm 5.8 mph9.3 kmh 29.52 in999.7 mb - 0.00 in0.0 mm 0.00 in0.0 mm
02:00 AM 39.3°F4.1°C 38.0°F3.3°C 95% Calm Calm -- 29.52 in999.7 mb - 0.00 in0.0 mm 0.00 in0.0 mm
02:10 AM 39.3°F4.1°C 38.0°F3.3°C 95% Calm Calm -- 29.52 in999.7 mb - 0.00 in0.0 mm 0.00 in0.0 mm
02:20 AM 39.2°F4.0°C 37.9°F3.3°C 95% Calm Calm -- 29.51 in999.3 mb - 0.00 in0.0 mm 0.00 in0.0 mm
02:30 AM 39.1°F3.9°C 37.8°F3.2°C 95% Calm Calm -- 29.51 in999.3 mb - 0.00 in0.0 mm 0.00 in0.0 mm
02:40 AM 38.9°F3.8°C 37.6°F3.1°C 95% Calm Calm -- 29.51 in999.3 mb - 0.00 in0.0 mm 0.00 in0.0 mm
02:50 AM 38.5°F3.6°C 37.2°F2.9°C 95% Calm Calm -- 29.51 in999.3 mb - 0.00 in0.0 mm 0.00 in0.0 mm
03:00 AM 38.2°F3.4°C 36.9°F2.7°C 95% Calm Calm -- 29.51 in999.3 mb - 0.00 in0.0 mm 0.00 in0.0 mm
03:10 AM 37.9°F3.3°C 36.6°F2.6°C 95% Calm Calm -- 29.51 in999.3 mb - 0.00 in0.0 mm 0.00 in0.0 mm
03:20 AM 37.8°F3.2°C 36.5°F2.5°C 95% Calm Calm 5.8 mph9.3 kmh 29.51 in999.3 mb - 0.00 in0.0 mm 0.00 in0.0 mm
03:30 AM 37.8°F3.2°C 36.5°F2.5°C 95% Calm Calm -- 29.52 in999.7 mb - 0.00 in0.0 mm 0.00 in0.0 mm
03:40 AM 37.8°F3.2°C 36.5°F2.5°C 95% Calm Calm -- 29.52 in999.7 mb - 0.00 in0.0 mm 0.00 in0.0 mm
03:50 AM 37.9°F3.3°C 36.6°F2.6°C 95% Calm Calm 4.6 mph7.4 kmh 29.52 in999.7 mb - 0.00 in0.0 mm 0.00 in0.0 mm
04:00 AM 37.9°F3.3°C 36.6°F2.6°C 95% 1.2 mph SSW1.9 kmh SSW 3.5 mph5.6 kmh 29.52 in999.7 mb - 0.00 in0.0 mm 0.00 in0.0 mm
04:10 AM 38.0°F3.3°C 36.7°F2.6°C 95% 2.3 mph SW3.7 kmh SW 10.4 mph16.7 kmh 29.51 in999.3 mb - 0.00 in0.0 mm 0.00 in0.0 mm
04:20 AM 37.9°F3.3°C 36.6°F2.6°C 95% 3.5 mph SW5.6 kmh SW 10.4 mph16.7 kmh 29.51 in999.3 mb - 0.00 in0.0 mm 0.00 in0.0 mm
04:30 AM 37.9°F3.3°C 36.6°F2.6°C 95% 1.2 mph SW1.9 kmh SW 3.5 mph5.6 kmh 29.51 in999.3 mb - 0.00 in0.0 mm 0.00 in0.0 mm
04:40 AM 37.9°F3.3°C 36.6°F2.6°C 95% 1.2 mph SW1.9 kmh SW 2.3 mph3.7 kmh 29.52 in999.7 mb - 0.00 in0.0 mm 0.00 in0.0 mm
04:50 AM 37.9°F3.3°C 36.3°F2.4°C 94% Calm Calm -- 29.52 in999.7 mb - 0.00 in0.0 mm 0.00 in0.0 mm
05:00 AM 37.9°F3.3°C 36.3°F2.4°C 94% 1.2 mph SSW1.9 kmh SSW 6.9 mph11.1 kmh 29.52 in999.7 mb - 0.00 in0.0 mm 0.00 in0.0 mm
05:10 AM 37.7°F3.2°C 36.1°F2.3°C 94% Calm Calm -- 29.52 in999.7 mb - 0.00 in0.0 mm 0.00 in0.0 mm
05:20 AM 37.5°F3.1°C 35.7°F2.1°C 93% Calm Calm -- 29.52 in999.7 mb - 0.00 in0.0 mm 0.00 in0.0 mm
05:30 AM 37.3°F2.9°C 35.5°F1.9°C 93% Calm Calm -- 29.52 in999.7 mb - 0.00 in0.0 mm 0.00 in0.0 mm
05:40 AM 37.3°F2.9°C 35.7°F2.1°C 94% 2.3 mph SSW3.7 kmh SSW 8.1 mph13.0 kmh 29.52 in999.7 mb - 0.00 in0.0 mm 0.00 in0.0 mm
05:50 AM 37.4°F3.0°C 35.8°F2.1°C 94% Calm Calm -- 29.52 in999.7 mb - 0.00 in0.0 mm 0.00 in0.0 mm
06:00 AM 37.3°F2.9°C 35.7°F2.1°C 94% Calm Calm -- 29.52 in999.7 mb - 0.00 in0.0 mm 0.00 in0.0 mm
06:10 AM 37.0°F2.8°C 35.5°F1.9°C 94% 1.2 mph SW1.9 kmh SW 6.9 mph11.1 kmh 29.52 in999.7 mb - 0.00 in0.0 mm 0.00 in0.0 mm
06:20 AM 37.1°F2.8°C 35.5°F1.9°C 94% 2.3 mph SW3.7 kmh SW 8.1 mph13.0 kmh 29.52 in999.7 mb - 0.00 in0.0 mm 0.00 in0.0 mm
06:30 AM 37.1°F2.8°C 35.5°F1.9°C 94% Calm Calm 2.3 mph3.7 kmh 29.52 in999.7 mb - 0.00 in0.0 mm 0.00 in0.0 mm
06:40 AM 37.1°F2.8°C 35.5°F1.9°C 94% 1.2 mph SW1.9 kmh SW 3.5 mph5.6 kmh 29.52 in999.7 mb - 0.00 in0.0 mm 0.00 in0.0 mm
06:50 AM 37.1°F2.8°C 35.5°F1.9°C 94% Calm Calm 3.5 mph5.6 kmh 29.53 in1000.0 mb - 0.00 in0.0 mm 0.00 in0.0 mm
07:00 AM 37.2°F2.9°C 35.6°F2.0°C 94% 1.2 mph SW1.9 kmh SW 2.3 mph3.7 kmh 29.53 in1000.0 mb - 0.00 in0.0 mm 0.00 in0.0 mm
07:10 AM 37.3°F2.9°C 35.7°F2.1°C 94% Calm Calm -- 29.52 in999.7 mb - 0.00 in0.0 mm 0.00 in0.0 mm
07:20 AM 37.2°F2.9°C 35.7°F2.1°C 94% Calm Calm -- 29.52 in999.7 mb - 0.00 in0.0 mm 0.00 in0.0 mm
07:30 AM 37.2°F2.9°C 35.6°F2.0°C 94% Calm Calm -- 29.52 in999.7 mb - 0.00 in0.0 mm 0.00 in0.0 mm
07:40 AM 37.1°F2.8°C 35.5°F1.9°C 94% Calm Calm -- 29.52 in999.7 mb - 0.00 in0.0 mm 0.00 in0.0 mm
07:50 AM 37.1°F2.8°C 35.5°F1.9°C 94% Calm Calm -- 29.53 in1000.0 mb - 0.00 in0.0 mm 0.00 in0.0 mm
08:00 AM 37.1°F2.8°C 35.5°F1.9°C 94% Calm Calm 3.5 mph5.6 kmh 29.52 in999.7 mb - 0.00 in0.0 mm 0.00 in0.0 mm
08:10 AM 37.2°F2.9°C 35.7°F2.1°C 94% 3.5 mph SW5.6 kmh SW 8.1 mph13.0 kmh 29.52 in999.7 mb - 0.00 in0.0 mm 0.00 in0.0 mm
08:20 AM 37.6°F3.1°C 36.0°F2.2°C 94% 3.5 mph SW5.6 kmh SW 5.8 mph9.3 kmh 29.52 in999.7 mb - 0.00 in0.0 mm 0.00 in0.0 mm
08:30 AM 37.7°F3.2°C 35.9°F2.2°C 93% Calm Calm 4.6 mph7.4 kmh 29.52 in999.7 mb - 0.00 in0.0 mm 0.00 in0.0 mm
08:40 AM 37.8°F3.2°C 36.2°F2.3°C 94% 1.2 mph SSW1.9 kmh SSW -- 29.52 in999.7 mb - 0.00 in0.0 mm 0.00 in0.0 mm
08:50 AM 37.9°F3.3°C 36.1°F2.3°C 93% 1.2 mph SW1.9 kmh SW 5.8 mph9.3 kmh 29.52 in999.7 mb - 0.00 in0.0 mm 0.00 in0.0 mm
09:00 AM 37.9°F3.3°C 36.1°F2.3°C 93% 1.2 mph SW1.9 kmh SW 5.8 mph9.3 kmh 29.52 in999.7 mb - 0.00 in0.0 mm 0.00 in0.0 mm
09:10 AM 38.0°F3.3°C 36.1°F2.3°C 93% 1.2 mph SW1.9 kmh SW 4.6 mph7.4 kmh 29.52 in999.7 mb - 0.00 in0.0 mm 0.00 in0.0 mm
09:20 AM 38.0°F3.3°C 36.2°F2.3°C 93% 2.3 mph SW3.7 kmh SW 8.1 mph13.0 kmh 29.52 in999.7 mb - 0.00 in0.0 mm 0.00 in0.0 mm
09:30 AM 38.3°F3.5°C 36.5°F2.5°C 93% 1.2 mph SW1.9 kmh SW 5.8 mph9.3 kmh 29.51 in999.3 mb - 0.00 in0.0 mm 0.00 in0.0 mm
09:40 AM 38.7°F3.7°C 37.1°F2.8°C 94% 4.6 mph SW7.4 kmh SW 10.4 mph16.7 kmh 29.51 in999.3 mb - 0.00 in0.0 mm 0.00 in0.0 mm
09:50 AM 39.5°F4.2°C 37.6°F3.1°C 93% 6.9 mph SSW11.1 kmh SSW 11.5 mph18.5 kmh 29.51 in999.3 mb - 0.00 in0.0 mm 0.00 in0.0 mm
10:00 AM 40.3°F4.6°C 38.2°F3.4°C 92% 1.2 mph SW1.9 kmh SW 5.8 mph9.3 kmh 29.51 in999.3 mb - 0.00 in0.0 mm 0.00 in0.0 mm
10:10 AM 41.1°F5.1°C 38.7°F3.7°C 91% 3.5 mph SW5.6 kmh SW 6.9 mph11.1 kmh 29.51 in999.3 mb - 0.00 in0.0 mm 0.00 in0.0 mm
10:20 AM 42.2°F5.7°C 39.5°F4.2°C 90% 6.9 mph SW11.1 kmh SW 9.2 mph14.8 kmh 29.50 in999.0 mb - 0.00 in0.0 mm 0.00 in0.0 mm
10:30 AM 43.0°F6.1°C 39.7°F4.3°C 88% 5.8 mph SSW9.3 kmh SSW 9.2 mph14.8 kmh 29.50 in999.0 mb - 0.00 in0.0 mm 0.00 in0.0 mm
10:40 AM 43.3°F6.3°C 40.0°F4.4°C 88% 8.1 mph SW13.0 kmh SW 10.4 mph16.7 kmh 29.50 in999.0 mb - 0.00 in0.0 mm 0.00 in0.0 mm
10:50 AM 43.6°F6.4°C 40.0°F4.4°C 87% 1.2 mph SSW1.9 kmh SSW 5.8 mph9.3 kmh 29.49 in998.6 mb - 0.00 in0.0 mm 0.00 in0.0 mm
11:00 AM 44.4°F6.9°C 40.5°F4.7°C 86% 3.5 mph SSW5.6 kmh SSW 4.6 mph7.4 kmh 29.48 in998.3 mb - 0.00 in0.0 mm 0.00 in0.0 mm
11:10 AM 44.9°F7.2°C 40.4°F4.7°C 84% 6.9 mph S11.1 kmh S 11.5 mph18.5 kmh 29.47 in998.0 mb - 0.00 in0.0 mm 0.00 in0.0 mm
11:20 AM 45.2°F7.3°C 40.3°F4.6°C 83% 4.6 mph S7.4 kmh S 10.4 mph16.7 kmh 29.47 in998.0 mb - 0.00 in0.0 mm 0.00 in0.0 mm
11:30 AM 45.2°F7.3°C 40.3°F4.6°C 83% 4.6 mph SSW7.4 kmh SSW 9.2 mph14.8 kmh 29.46 in997.6 mb - 0.00 in0.0 mm 0.00 in0.0 mm
11:40 AM 45.2°F7.3°C 40.4°F4.7°C 83% 3.5 mph SW5.6 kmh SW 10.4 mph16.7 kmh 29.46 in997.6 mb - 0.00 in0.0 mm 0.00 in0.0 mm
11:50 AM 45.0°F7.2°C 39.8°F4.3°C 82% 3.5 mph SSW5.6 kmh SSW 6.9 mph11.1 kmh 29.45 in997.3 mb - 0.00 in0.0 mm 0.00 in0.0 mm
12:00 PM 45.1°F7.3°C 40.6°F4.8°C 84% 4.6 mph SSW7.4 kmh SSW 11.5 mph18.5 kmh 29.45 in997.3 mb - 0.00 in0.0 mm 0.00 in0.0 mm
12:10 PM 45.2°F7.3°C 41.0°F5.0°C 85% 5.8 mph S9.3 kmh S 11.5 mph18.5 kmh 29.44 in997.0 mb - 0.00 in0.0 mm 0.00 in0.0 mm
12:20 PM 45.0°F7.2°C 41.4°F5.2°C 87% 5.8 mph SSW9.3 kmh SSW 11.5 mph18.5 kmh 29.43 in996.6 mb - 0.01 in0.3 mm 0.01 in0.3 mm
12:30 PM 44.9°F7.2°C 41.5°F5.3°C 88% 6.9 mph S11.1 kmh S 10.4 mph16.7 kmh 29.42 in996.3 mb - 0.00 in0.0 mm 0.01 in0.3 mm
12:40 PM 44.8°F7.1°C 41.8°F5.4°C 89% 3.5 mph S5.6 kmh S 4.6 mph7.4 kmh 29.41 in995.9 mb - 0.00 in0.0 mm 0.01 in0.3 mm
12:50 PM 44.9°F7.2°C 42.1°F5.6°C 90% Calm Calm 5.8 mph9.3 kmh 29.39 in995.3 mb - 0.00 in0.0 mm 0.01 in0.3 mm
01:00 PM 44.9°F7.2°C 42.1°F5.6°C 90% 1.2 mph S1.9 kmh S 4.6 mph7.4 kmh 29.38 in994.9 mb - 0.00 in0.0 mm 0.01 in0.3 mm
01:10 PM 44.9°F7.2°C 42.4°F5.8°C 91% 3.5 mph S5.6 kmh S 8.1 mph13.0 kmh 29.37 in994.6 mb - 0.00 in0.0 mm 0.01 in0.3 mm
01:20 PM 44.8°F7.1°C 42.3°F5.7°C 91% 5.8 mph S9.3 kmh S 11.5 mph18.5 kmh 29.35 in993.9 mb - 0.01 in0.3 mm 0.02 in0.5 mm
01:30 PM 44.7°F7.1°C 42.5°F5.8°C 92% 2.3 mph S3.7 kmh S 5.8 mph9.3 kmh 29.34 in993.6 mb - 0.00 in0.0 mm 0.02 in0.5 mm
01:40 PM 44.6°F7.0°C 42.7°F5.9°C 93% 2.3 mph SSE3.7 kmh SSE 6.9 mph11.1 kmh 29.33 in993.2 mb - 0.01 in0.3 mm 0.02 in0.5 mm
01:50 PM 44.5°F6.9°C 42.6°F5.9°C 93% 1.2 mph SE1.9 kmh SE 1.2 mph1.9 kmh 29.32 in992.9 mb - 0.00 in0.0 mm 0.02 in0.5 mm
02:00 PM 44.3°F6.8°C 42.4°F5.8°C 93% 5.8 mph SSE9.3 kmh SSE 10.4 mph16.7 kmh 29.30 in992.2 mb - 0.00 in0.0 mm 0.02 in0.5 mm
02:10 PM 44.2°F6.8°C 42.6°F5.9°C 94% 5.8 mph SSE9.3 kmh SSE 10.4 mph16.7 kmh 29.29 in991.9 mb - 0.01 in0.3 mm 0.03 in0.8 mm
02:20 PM 44.2°F6.8°C 42.6°F5.9°C 94% 4.6 mph SE7.4 kmh SE 8.1 mph13.0 kmh 29.27 in991.2 mb - 0.00 in0.0 mm 0.03 in0.8 mm
02:30 PM 44.2°F6.8°C 42.6°F5.9°C 94% 2.3 mph SSE3.7 kmh SSE 9.2 mph14.8 kmh 29.26 in990.9 mb - 0.00 in0.0 mm 0.03 in0.8 mm
02:40 PM 44.2°F6.8°C 42.6°F5.9°C 94% 6.9 mph SSE11.1 kmh SSE 9.2 mph14.8 kmh 29.25 in990.5 mb - 0.01 in0.3 mm 0.04 in1.0 mm
02:50 PM 44.2°F6.8°C 42.6°F5.9°C 94% 3.5 mph SE5.6 kmh SE 10.4 mph16.7 kmh 29.23 in989.8 mb - 0.00 in0.0 mm 0.04 in1.0 mm
03:00 PM 44.3°F6.8°C 43.0°F6.1°C 95% 5.8 mph SSE9.3 kmh SSE 8.1 mph13.0 kmh 29.22 in989.5 mb - 0.00 in0.0 mm 0.04 in1.0 mm
03:10 PM 44.3°F6.8°C 43.0°F6.1°C 95% Calm Calm 1.2 mph1.9 kmh 29.21 in989.2 mb - 0.01 in0.3 mm 0.05 in1.3 mm
03:20 PM 44.3°F6.8°C 43.0°F6.1°C 95% 4.6 mph SE7.4 kmh SE 10.4 mph16.7 kmh 29.20 in988.8 mb - 0.01 in0.3 mm 0.06 in1.5 mm
03:30 PM 44.5°F6.9°C 43.2°F6.2°C 95% 6.9 mph SSE11.1 kmh SSE 13.8 mph22.2 kmh 29.19 in988.5 mb - 0.01 in0.3 mm 0.06 in1.5 mm
03:50 PM 45.1°F7.3°C 43.8°F6.6°C 95% 5.8 mph SSE9.3 kmh SSE 8.1 mph13.0 kmh 29.17 in987.8 mb - 0.00 in0.0 mm 0.07 in1.8 mm
04:00 PM 45.2°F7.3°C 43.9°F6.6°C 95% 9.2 mph S14.8 kmh S 13.8 mph22.2 kmh 29.16 in987.5 mb - 0.02 in0.5 mm 0.09 in2.3 mm
04:10 PM 45.1°F7.3°C 43.8°F6.6°C 95% 8.1 mph SSE13.0 kmh SSE 16.1 mph25.9 kmh 29.14 in986.8 mb - 0.02 in0.5 mm 0.10 in2.5 mm
04:20 PM 45.2°F7.3°C 43.9°F6.6°C 95% 9.2 mph SSE14.8 kmh SSE 13.8 mph22.2 kmh 29.13 in986.5 mb - 0.02 in0.5 mm 0.12 in3.0 mm
04:30 PM 45.0°F7.2°C 43.7°F6.5°C 95% 9.2 mph SSE14.8 kmh SSE 11.5 mph18.5 kmh 29.11 in985.8 mb - 0.01 in0.3 mm 0.13 in3.3 mm
04:40 PM 44.9°F7.2°C 43.6°F6.4°C 95% 8.1 mph SSE13.0 kmh SSE 11.5 mph18.5 kmh 29.10 in985.4 mb - 0.01 in0.3 mm 0.13 in3.3 mm
04:50 PM 45.0°F7.2°C 43.7°F6.5°C 95% 10.4 mph SE16.7 kmh SE 19.6 mph31.5 kmh 29.09 in985.1 mb - 0.02 in0.5 mm 0.15 in3.8 mm
05:10 PM 45.1°F7.3°C 43.8°F6.6°C 95% 9.2 mph SE14.8 kmh SE 13.8 mph22.2 kmh 29.06 in984.1 mb - 0.02 in0.5 mm 0.18 in4.6 mm
05:20 PM 45.3°F7.4°C 44.0°F6.7°C 95% 4.6 mph S7.4 kmh S 8.1 mph13.0 kmh 29.05 in983.7 mb - 0.02 in0.5 mm 0.20 in5.1 mm
05:30 PM 45.6°F7.6°C 44.5°F6.9°C 96% 10.4 mph SSE16.7 kmh SSE 20.7 mph33.3 kmh 29.04 in983.4 mb - 0.01 in0.3 mm 0.21 in5.3 mm
05:40 PM 45.8°F7.7°C 44.7°F7.1°C 96% 9.2 mph S14.8 kmh S 13.8 mph22.2 kmh 29.02 in982.7 mb - 0.02 in0.5 mm 0.21 in5.3 mm
05:50 PM 45.8°F7.7°C 44.4°F6.9°C 95% 6.9 mph SSE11.1 kmh SSE 13.8 mph22.2 kmh 29.02 in982.7 mb - 0.00 in0.0 mm 0.21 in5.3 mm
06:00 PM 45.8°F7.7°C 44.4°F6.9°C 95% 9.2 mph SE14.8 kmh SE 12.7 mph20.4 kmh 29.01 in982.4 mb - 0.01 in0.3 mm 0.22 in5.6 mm
06:10 PM 45.9°F7.7°C 44.6°F7.0°C 95% 6.9 mph SSE11.1 kmh SSE 10.4 mph16.7 kmh 29.00 in982.1 mb - 0.00 in0.0 mm 0.22 in5.6 mm
06:20 PM 46.0°F7.8°C 44.6°F7.0°C 95% 3.5 mph SSE5.6 kmh SSE 10.4 mph16.7 kmh 28.99 in981.7 mb - 0.01 in0.3 mm 0.23 in5.8 mm
06:30 PM 46.1°F7.8°C 45.0°F7.2°C 96% 2.3 mph SE3.7 kmh SE 3.5 mph5.6 kmh 28.98 in981.4 mb - 0.02 in0.5 mm 0.24 in6.1 mm
06:40 PM 46.2°F7.9°C 45.1°F7.3°C 96% 1.2 mph ESE1.9 kmh ESE 2.3 mph3.7 kmh 28.96 in980.7 mb - 0.02 in0.5 mm 0.25 in6.4 mm
06:50 PM 46.2°F7.9°C 45.1°F7.3°C 96% Calm Calm -- 28.95 in980.4 mb - 0.01 in0.3 mm 0.26 in6.6 mm
07:00 PM 46.3°F7.9°C 45.2°F7.3°C 96% 1.2 mph SE1.9 kmh SE 4.6 mph7.4 kmh 28.94 in980.0 mb - 0.00 in0.0 mm 0.26 in6.6 mm
07:20 PM 46.6°F8.1°C 45.5°F7.5°C 96% 1.2 mph SE1.9 kmh SE -- 28.91 in979.0 mb - 0.00 in0.0 mm 0.26 in6.6 mm
07:30 PM 46.7°F8.2°C 45.6°F7.6°C 96% Calm Calm -- 28.91 in979.0 mb - 0.00 in0.0 mm 0.26 in6.6 mm
07:40 PM 46.1°F7.8°C 44.8°F7.1°C 95% 2.3 mph WSW3.7 kmh WSW 9.2 mph14.8 kmh 28.91 in979.0 mb - 0.00 in0.0 mm 0.26 in6.6 mm
07:50 PM 44.9°F7.2°C 43.6°F6.4°C 95% 3.5 mph SW5.6 kmh SW 5.8 mph9.3 kmh 28.91 in979.0 mb - 0.00 in0.0 mm 0.26 in6.6 mm
08:00 PM 44.6°F7.0°C 43.2°F6.2°C 95% Calm Calm -- 28.91 in979.0 mb - 0.01 in0.3 mm 0.27 in6.9 mm
08:10 PM 44.4°F6.9°C 43.1°F6.2°C 95% Calm Calm -- 28.92 in979.3 mb - 0.00 in0.0 mm 0.27 in6.9 mm
08:20 PM 44.3°F6.8°C 43.2°F6.2°C 96% Calm Calm -- 28.92 in979.3 mb - 0.00 in0.0 mm 0.27 in6.9 mm
08:30 PM 44.2°F6.8°C 43.1°F6.2°C 96% Calm Calm -- 28.92 in979.3 mb - 0.00 in0.0 mm 0.27 in6.9 mm
08:40 PM 44.1°F6.7°C 43.0°F6.1°C 96% Calm Calm -- 28.91 in979.0 mb - 0.00 in0.0 mm 0.27 in6.9 mm
08:50 PM 44.1°F6.7°C 43.0°F6.1°C 96% Calm Calm -- 28.91 in979.0 mb - 0.01 in0.3 mm 0.28 in7.1 mm
09:00 PM 44.0°F6.7°C 42.9°F6.1°C 96% Calm Calm -- 28.92 in979.3 mb - 0.00 in0.0 mm 0.28 in7.1 mm
09:10 PM 44.0°F6.7°C 42.9°F6.1°C 96% Calm Calm -- 28.92 in979.3 mb - 0.00 in0.0 mm 0.28 in7.1 mm
09:20 PM 44.1°F6.7°C 43.0°F6.1°C 96% Calm Calm -- 28.92 in979.3 mb - 0.00 in0.0 mm 0.28 in7.1 mm
09:30 PM 44.1°F6.7°C 43.0°F6.1°C 96% Calm Calm -- 28.91 in979.0 mb - 0.00 in0.0 mm 0.28 in7.1 mm
09:40 PM 44.1°F6.7°C 43.0°F6.1°C 96% Calm Calm -- 28.92 in979.3 mb - 0.00 in0.0 mm 0.28 in7.1 mm
09:50 PM 44.1°F6.7°C 43.0°F6.1°C 96% Calm Calm -- 28.92 in979.3 mb - 0.00 in0.0 mm 0.28 in7.1 mm
10:00 PM 44.1°F6.7°C 43.0°F6.1°C 96% Calm Calm -- 28.92 in979.3 mb - 0.00 in0.0 mm 0.28 in7.1 mm
10:10 PM 44.1°F6.7°C 43.0°F6.1°C 96% Calm Calm -- 28.91 in979.0 mb - 0.01 in0.3 mm 0.28 in7.1 mm
10:20 PM 44.1°F6.7°C 43.0°F6.1°C 96% Calm Calm -- 28.91 in979.0 mb - 0.00 in0.0 mm 0.28 in7.1 mm
10:30 PM 44.2°F6.8°C 43.1°F6.2°C 96% Calm Calm -- 28.91 in979.0 mb - 0.00 in0.0 mm 0.28 in7.1 mm
10:40 PM 44.1°F6.7°C 43.0°F6.1°C 96% Calm Calm -- 28.91 in979.0 mb - 0.00 in0.0 mm 0.28 in7.1 mm
10:50 PM 44.0°F6.7°C 42.9°F6.1°C 96% Calm Calm -- 28.91 in979.0 mb - 0.00 in0.0 mm 0.28 in7.1 mm
11:00 PM 43.9°F6.6°C 42.8°F6.0°C 96% Calm Calm -- 28.90 in978.7 mb - 0.00 in0.0 mm 0.28 in7.1 mm
11:10 PM 43.7°F6.5°C 42.6°F5.9°C 96% Calm Calm -- 28.90 in978.7 mb - 0.00 in0.0 mm 0.28 in7.1 mm
11:20 PM 43.5°F6.4°C 42.5°F5.8°C 96% Calm Calm -- 28.90 in978.7 mb - 0.00 in0.0 mm 0.28 in7.1 mm
11:30 PM 43.4°F6.3°C 42.3°F5.7°C 96% Calm Calm -- 28.91 in979.0 mb - 0.00 in0.0 mm 0.28 in7.1 mm
11:40 PM 43.4°F6.3°C 42.3°F5.7°C 96% Calm Calm -- 28.91 in979.0 mb - 0.00 in0.0 mm 0.28 in7.1 mm
11:50 PM 43.4°F6.3°C 42.6°F5.9°C 97% Calm Calm -- 28.91 in979.0 mb - 0.00 in0.0 mm 0.28 in7.1 mm